sensor_id;sensor_type;location;lat;lon;timestamp;temperature;humidity
14709;DHT22;7445;50.774;4.944;2023-04-15T07:16:39;10.80;55.50
14709;DHT22;7445;50.774;4.944;2023-04-15T07:19:04;10.60;58.00
14709;DHT22;7445;50.774;4.944;2023-04-15T07:21:30;10.30;48.50
14709;DHT22;7445;50.774;4.944;2023-04-15T07:23:56;10.20;79.40
14709;DHT22;7445;50.774;4.944;2023-04-15T07:26:23;10.10;96.30
14709;DHT22;7445;50.774;4.944;2023-04-15T07:28:49;10.00;99.90
14709;DHT22;7445;50.774;4.944;2023-04-15T07:31:15;10.10;99.90
14709;DHT22;7445;50.774;4.944;2023-04-15T07:33:41;10.20;99.90
14709;DHT22;7445;50.774;4.944;2023-04-15T07:36:07;10.30;91.90
14709;DHT22;7445;50.774;4.944;2023-04-15T07:38:33;10.50;81.20
14709;DHT22;7445;50.774;4.944;2023-04-15T07:40:59;10.60;58.20
14709;DHT22;7445;50.774;4.944;2023-04-15T07:43:25;10.80;69.50
14709;DHT22;7445;50.774;4.944;2023-04-15T07:45:51;11.00;50.50
14709;DHT22;7445;50.774;4.944;2023-04-15T07:48:17;11.00;28.30
14709;DHT22;7445;50.774;4.944;2023-04-15T07:50:43;10.90;26.60
14709;DHT22;7445;50.774;4.944;2023-04-15T07:53:08;11.00;29.10
14709;DHT22;7445;50.774;4.944;2023-04-15T07:55:34;11.00;12.60
14709;DHT22;7445;50.774;4.944;2023-04-15T07:58:00;11.20;17.90
14709;DHT22;7445;50.774;4.944;2023-04-15T08:00:25;11.30;12.30
14709;DHT22;7445;50.774;4.944;2023-04-15T08:02:51;11.40;1.00
14709;DHT22;7445;50.774;4.944;2023-04-15T08:05:18;11.60;24.60
14709;DHT22;7445;50.774;4.944;2023-04-15T08:07:44;11.70;12.10
14709;DHT22;7445;50.774;4.944;2023-04-15T08:10:10;11.70;1.00
14709;DHT22;7445;50.774;4.944;2023-04-15T08:12:36;11.90;1.00
14709;DHT22;7445;50.774;4.944;2023-04-15T08:15:02;12.10;1.00
14709;DHT22;7445;50.774;4.944;2023-04-15T08:17:28;12.10;1.00
14709;DHT22;7445;50.774;4.944;2023-04-15T08:19:54;12.00;1.00
14709;DHT22;7445;50.774;4.944;2023-04-15T08:22:19;12.20;1.00
14709;DHT22;7445;50.774;4.944;2023-04-15T08:24:45;12.30;1.00
14709;DHT22;7445;50.774;4.944;2023-04-15T08:27:11;12.40;1.00
14709;DHT22;7445;50.774;4.944;2023-04-15T08:29:36;12.40;1.00
14709;DHT22;7445;50.774;4.944;2023-04-15T08:32:02;12.60;1.00
14709;DHT22;7445;50.774;4.944;2023-04-15T08:34:28;12.80;1.00
14709;DHT22;7445;50.774;4.944;2023-04-15T08:36:54;12.80;1.00
14709;DHT22;7445;50.774;4.944;2023-04-15T08:39:20;13.00;1.00
14709;DHT22;7445;50.774;4.944;2023-04-15T08:42:00;13.10;1.00
14709;DHT22;7445;50.774;4.944;2023-04-15T08:44:33;13.10;1.00
14709;DHT22;7445;50.774;4.944;2023-04-15T08:47:06;13.10;1.00
14709;DHT22;7445;50.774;4.944;2023-04-15T08:49:32;13.20;1.00
14709;DHT22;7445;50.774;4.944;2023-04-15T08:52:00;13.20;1.00
14709;DHT22;7445;50.774;4.944;2023-04-15T08:54:26;13.40;1.00
14709;DHT22;7445;50.774;4.944;2023-04-15T08:56:52;13.70;1.00
14709;DHT22;7445;50.774;4.944;2023-04-15T08:59:20;13.90;99.90
14709;DHT22;7445;50.774;4.944;2023-04-15T09:01:47;14.10;99.90
14709;DHT22;7445;50.774;4.944;2023-04-15T09:04:13;14.20;1.00
14709;DHT22;7445;50.774;4.944;2023-04-15T09:06:39;14.30;99.90
14709;DHT22;7445;50.774;4.944;2023-04-15T09:09:05;14.30;99.90
14709;DHT22;7445;50.774;4.944;2023-04-15T09:11:31;14.40;1.00
14709;DHT22;7445;50.774;4.944;2023-04-15T09:13:57;14.70;99.90
14709;DHT22;7445;50.774;4.944;2023-04-15T09:16:22;14.80;1.00
14709;DHT22;7445;50.774;4.944;2023-04-15T09:18:48;14.60;1.00
14709;DHT22;7445;50.774;4.944;2023-04-15T09:21:16;14.50;31.30
14709;DHT22;7445;50.774;4.944;2023-04-15T09:23:59;14.50;85.80
14709;DHT22;7445;50.774;4.944;2023-04-15T09:26:32;14.60;99.90
14709;DHT22;7445;50.774;4.944;2023-04-15T09:29:06;14.50;1.00
14709;DHT22;7445;50.774;4.944;2023-04-15T09:31:32;14.50;99.90
14709;DHT22;7445;50.774;4.944;2023-04-15T09:33:58;14.50;1.00
14709;DHT22;7445;50.774;4.944;2023-04-15T09:36:24;14.60;1.00
14709;DHT22;7445;50.774;4.944;2023-04-15T09:38:59;14.70;24.50
14709;DHT22;7445;50.774;4.944;2023-04-15T09:41:26;14.80;1.00
14709;DHT22;7445;50.774;4.944;2023-04-15T09:43:52;14.70;1.00
14709;DHT22;7445;50.774;4.944;2023-04-15T09:46:18;14.80;1.00
14709;DHT22;7445;50.774;4.944;2023-04-15T09:48:44;15.00;1.00
14709;DHT22;7445;50.774;4.944;2023-04-15T09:51:10;15.20;1.00
14709;DHT22;7445;50.774;4.944;2023-04-15T09:53:36;15.20;1.00
14709;DHT22;7445;50.774;4.944;2023-04-15T09:56:05;15.10;1.00
14709;DHT22;7445;50.774;4.944;2023-04-15T09:58:34;15.00;99.90
14709;DHT22;7445;50.774;4.944;2023-04-15T10:01:02;14.90;99.90
14709;DHT22;7445;50.774;4.944;2023-04-15T10:03:30;14.80;1.00
14709;DHT22;7445;50.774;4.944;2023-04-15T10:05:59;14.90;1.00
14709;DHT22;7445;50.774;4.944;2023-04-15T10:08:33;14.90;99.90
14709;DHT22;7445;50.774;4.944;2023-04-15T10:11:02;15.00;99.90
14709;DHT22;7445;50.774;4.944;2023-04-15T10:13:30;15.40;1.00
14709;DHT22;7445;50.774;4.944;2023-04-15T10:16:07;15.50;1.00
14709;DHT22;7445;50.774;4.944;2023-04-15T10:18:37;15.70;99.90
14709;DHT22;7445;50.774;4.944;2023-04-15T10:21:05;15.80;1.00
14709;DHT22;7445;50.774;4.944;2023-04-15T10:23:33;15.70;99.90
14709;DHT22;7445;50.774;4.944;2023-04-15T10:25:59;15.70;1.00
14709;DHT22;7445;50.774;4.944;2023-04-15T10:28:25;15.70;1.00
14709;DHT22;7445;50.774;4.944;2023-04-15T10:30:52;15.80;1.00
14709;DHT22;7445;50.774;4.944;2023-04-15T10:33:20;15.90;99.90
14709;DHT22;7445;50.774;4.944;2023-04-15T10:35:48;16.10;99.90
14709;DHT22;7445;50.774;4.944;2023-04-15T10:38:47;16.00;99.90
14709;DHT22;7445;50.774;4.944;2023-04-15T10:51:42;16.70;1.00
14709;DHT22;7445;50.774;4.944;2023-04-15T10:54:14;16.50;99.90
14709;DHT22;7445;50.774;4.944;2023-04-15T10:56:44;16.40;99.90
14709;DHT22;7445;50.774;4.944;2023-04-15T10:59:10;16.30;99.90
14709;DHT22;7445;50.774;4.944;2023-04-15T11:02:01;16.20;99.90
14709;DHT22;7445;50.774;4.944;2023-04-15T11:04:55;16.30;99.90
14709;DHT22;7445;50.774;4.944;2023-04-15T11:07:53;16.40;99.90
14709;DHT22;7445;50.774;4.944;2023-04-15T11:12:56;16.70;1.00
14709;DHT22;7445;50.774;4.944;2023-04-15T11:20:44;16.40;1.00
14709;DHT22;7445;50.774;4.944;2023-04-15T11:23:10;16.50;1.00
14709;DHT22;7445;50.774;4.944;2023-04-15T11:25:36;16.50;1.00
14709;DHT22;7445;50.774;4.944;2023-04-15T11:28:02;16.50;1.00
14709;DHT22;7445;50.774;4.944;2023-04-15T11:30:30;16.50;1.00
14709;DHT22;7445;50.774;4.944;2023-04-15T11:33:04;16.30;1.00
14709;DHT22;7445;50.774;4.944;2023-04-15T11:35:30;16.40;1.00
14709;DHT22;7445;50.774;4.944;2023-04-15T11:37:57;16.70;99.90
14709;DHT22;7445;50.774;4.944;2023-04-15T11:43:19;16.90;1.00
14709;DHT22;7445;50.774;4.944;2023-04-15T11:45:58;16.90;99.90
14709;DHT22;7445;50.774;4.944;2023-04-15T11:48:26;16.90;1.00
14709;DHT22;7445;50.774;4.944;2023-04-15T11:50:53;16.90;99.90
14709;DHT22;7445;50.774;4.944;2023-04-15T11:53:19;17.00;99.90
14709;DHT22;7445;50.774;4.944;2023-04-15T11:55:51;17.00;99.90
14709;DHT22;7445;50.774;4.944;2023-04-15T11:58:24;17.20;99.90
14709;DHT22;7445;50.774;4.944;2023-04-15T12:00:58;17.10;99.90
14709;DHT22;7445;50.774;4.944;2023-04-15T12:03:42;17.10;99.90
14709;DHT22;7445;50.774;4.944;2023-04-15T12:06:22;16.90;99.90
14709;DHT22;7445;50.774;4.944;2023-04-15T12:09:07;16.90;99.90
14709;DHT22;7445;50.774;4.944;2023-04-15T12:11:50;16.90;99.90
14709;DHT22;7445;50.774;4.944;2023-04-15T12:16:53;17.20;99.90
14709;DHT22;7445;50.774;4.944;2023-04-15T12:19:27;17.00;99.90
14709;DHT22;7445;50.774;4.944;2023-04-15T12:22:00;16.90;99.90
14709;DHT22;7445;50.774;4.944;2023-04-15T12:24:26;16.80;99.90
14709;DHT22;7445;50.774;4.944;2023-04-15T12:26:54;16.60;99.90
14709;DHT22;7445;50.774;4.944;2023-04-15T12:29:25;16.70;99.90
14709;DHT22;7445;50.774;4.944;2023-04-15T12:34:28;17.50;99.90
14709;DHT22;7445;50.774;4.944;2023-04-15T12:36:54;17.40;99.90
14709;DHT22;7445;50.774;4.944;2023-04-15T12:39:24;17.10;99.90
14709;DHT22;7445;50.774;4.944;2023-04-15T12:41:51;17.20;99.90
14709;DHT22;7445;50.774;4.944;2023-04-15T12:44:17;17.40;99.90
14709;DHT22;7445;50.774;4.944;2023-04-15T12:46:44;17.70;99.90
14709;DHT22;7445;50.774;4.944;2023-04-15T12:49:10;17.80;99.90
14709;DHT22;7445;50.774;4.944;2023-04-15T12:51:36;17.70;99.90
14709;DHT22;7445;50.774;4.944;2023-04-15T12:54:01;17.80;99.90
14709;DHT22;7445;50.774;4.944;2023-04-15T12:56:27;18.00;99.90
14709;DHT22;7445;50.774;4.944;2023-04-15T12:58:53;17.80;99.90
14709;DHT22;7445;50.774;4.944;2023-04-15T13:01:19;17.90;99.90
14709;DHT22;7445;50.774;4.944;2023-04-15T13:03:45;17.40;99.90
14709;DHT22;7445;50.774;4.944;2023-04-15T13:06:11;17.50;99.90
14709;DHT22;7445;50.774;4.944;2023-04-15T13:08:36;17.30;99.90
14709;DHT22;7445;50.774;4.944;2023-04-15T13:11:02;17.30;99.90
14709;DHT22;7445;50.774;4.944;2023-04-15T13:13:28;17.00;99.90
14709;DHT22;7445;50.774;4.944;2023-04-15T13:15:56;17.20;99.90
14709;DHT22;7445;50.774;4.944;2023-04-15T13:18:22;17.00;99.90
14709;DHT22;7445;50.774;4.944;2023-04-15T13:20:48;17.00;99.90
14709;DHT22;7445;50.774;4.944;2023-04-15T13:23:14;17.40;99.90
14709;DHT22;7445;50.774;4.944;2023-04-15T13:25:39;17.50;99.90
14709;DHT22;7445;50.774;4.944;2023-04-15T13:28:05;17.70;99.90
14709;DHT22;7445;50.774;4.944;2023-04-15T13:30:31;17.80;99.90
14709;DHT22;7445;50.774;4.944;2023-04-15T13:32:56;17.60;99.90
14709;DHT22;7445;50.774;4.944;2023-04-15T13:35:22;17.40;99.90
14709;DHT22;7445;50.774;4.944;2023-04-15T13:37:48;17.80;99.90
14709;DHT22;7445;50.774;4.944;2023-04-15T13:40:13;17.70;99.90
14709;DHT22;7445;50.774;4.944;2023-04-15T13:42:40;17.60;1.00
14709;DHT22;7445;50.774;4.944;2023-04-15T13:45:07;17.20;99.90
14709;DHT22;7445;50.774;4.944;2023-04-15T13:47:33;17.30;99.90
14709;DHT22;7445;50.774;4.944;2023-04-15T13:49:58;17.10;99.90
14709;DHT22;7445;50.774;4.944;2023-04-15T13:52:24;17.00;99.90
14709;DHT22;7445;50.774;4.944;2023-04-15T13:54:50;17.10;99.90
14709;DHT22;7445;50.774;4.944;2023-04-15T13:57:16;17.10;99.90
14709;DHT22;7445;50.774;4.944;2023-04-15T13:59:42;17.20;99.90
14709;DHT22;7445;50.774;4.944;2023-04-15T14:02:08;17.40;99.90
14709;DHT22;7445;50.774;4.944;2023-04-15T14:04:34;17.30;99.90
14709;DHT22;7445;50.774;4.944;2023-04-15T14:07:00;17.30;99.90
14709;DHT22;7445;50.774;4.944;2023-04-15T14:09:26;17.80;99.90
14709;DHT22;7445;50.774;4.944;2023-04-15T14:11:51;17.80;99.90
14709;DHT22;7445;50.774;4.944;2023-04-15T14:14:17;17.40;99.90
14709;DHT22;7445;50.774;4.944;2023-04-15T14:16:43;17.60;99.90
14709;DHT22;7445;50.774;4.944;2023-04-15T14:19:08;17.70;99.90
14709;DHT22;7445;50.774;4.944;2023-04-15T14:21:34;16.90;99.90
14709;DHT22;7445;50.774;4.944;2023-04-15T14:24:00;16.60;99.90
14709;DHT22;7445;50.774;4.944;2023-04-15T14:26:25;16.80;99.90
14709;DHT22;7445;50.774;4.944;2023-04-15T14:28:51;16.80;99.90
14709;DHT22;7445;50.774;4.944;2023-04-15T14:31:18;16.70;1.00
14709;DHT22;7445;50.774;4.944;2023-04-15T14:33:43;16.50;99.90
14709;DHT22;7445;50.774;4.944;2023-04-15T14:36:09;16.60;99.90
14709;DHT22;7445;50.774;4.944;2023-04-15T14:38:35;16.50;99.90
14709;DHT22;7445;50.774;4.944;2023-04-15T14:41:03;16.90;99.90
14709;DHT22;7445;50.774;4.944;2023-04-15T14:43:29;16.90;99.90
14709;DHT22;7445;50.774;4.944;2023-04-15T14:45:55;17.10;99.90
14709;DHT22;7445;50.774;4.944;2023-04-15T14:48:20;17.50;99.90
14709;DHT22;7445;50.774;4.944;2023-04-15T14:50:46;17.00;99.90
14709;DHT22;7445;50.774;4.944;2023-04-15T14:53:12;17.10;99.90
14709;DHT22;7445;50.774;4.944;2023-04-15T14:55:37;17.40;99.90
14709;DHT22;7445;50.774;4.944;2023-04-15T14:58:03;18.10;99.90
14709;DHT22;7445;50.774;4.944;2023-04-15T15:00:29;18.30;99.90
14709;DHT22;7445;50.774;4.944;2023-04-15T15:02:55;17.30;99.90
14709;DHT22;7445;50.774;4.944;2023-04-15T15:05:21;16.60;99.90
14709;DHT22;7445;50.774;4.944;2023-04-15T15:07:46;16.90;99.90
14709;DHT22;7445;50.774;4.944;2023-04-15T15:10:12;17.10;99.90
14709;DHT22;7445;50.774;4.944;2023-04-15T15:12:37;17.50;99.90
14709;DHT22;7445;50.774;4.944;2023-04-15T15:15:03;17.60;99.90
14709;DHT22;7445;50.774;4.944;2023-04-15T15:17:29;17.30;99.90
14709;DHT22;7445;50.774;4.944;2023-04-15T15:19:55;17.20;99.90
14709;DHT22;7445;50.774;4.944;2023-04-15T15:22:21;17.60;99.90
14709;DHT22;7445;50.774;4.944;2023-04-15T15:24:47;17.70;99.90
14709;DHT22;7445;50.774;4.944;2023-04-15T15:27:12;17.80;99.90
14709;DHT22;7445;50.774;4.944;2023-04-15T15:29:39;17.70;99.90
14709;DHT22;7445;50.774;4.944;2023-04-15T15:32:05;17.90;99.90
14709;DHT22;7445;50.774;4.944;2023-04-15T15:34:30;18.00;99.90
14709;DHT22;7445;50.774;4.944;2023-04-15T15:36:56;17.80;99.90
14709;DHT22;7445;50.774;4.944;2023-04-15T15:39:22;17.50;99.90
14709;DHT22;7445;50.774;4.944;2023-04-15T15:41:48;17.40;99.90
14709;DHT22;7445;50.774;4.944;2023-04-15T15:44:14;17.30;99.90
14709;DHT22;7445;50.774;4.944;2023-04-15T15:46:40;17.20;99.90
14709;DHT22;7445;50.774;4.944;2023-04-15T15:49:05;17.40;99.90
14709;DHT22;7445;50.774;4.944;2023-04-15T15:51:31;17.60;99.90
14709;DHT22;7445;50.774;4.944;2023-04-15T15:53:57;17.50;99.90
14709;DHT22;7445;50.774;4.944;2023-04-15T15:56:22;17.20;1.00
14709;DHT22;7445;50.774;4.944;2023-04-15T15:58:48;16.70;99.90
14709;DHT22;7445;50.774;4.944;2023-04-15T16:01:14;16.10;99.90
14709;DHT22;7445;50.774;4.944;2023-04-15T16:03:39;16.00;99.90
14709;DHT22;7445;50.774;4.944;2023-04-15T16:06:05;15.80;99.90
14709;DHT22;7445;50.774;4.944;2023-04-15T16:08:31;15.60;99.90
14709;DHT22;7445;50.774;4.944;2023-04-15T16:10:57;15.70;99.90
14709;DHT22;7445;50.774;4.944;2023-04-15T16:13:22;15.60;99.90
14709;DHT22;7445;50.774;4.944;2023-04-15T16:15:48;15.50;99.90
14709;DHT22;7445;50.774;4.944;2023-04-15T16:18:17;15.30;99.90
14709;DHT22;7445;50.774;4.944;2023-04-15T16:20:42;15.30;99.90
14709;DHT22;7445;50.774;4.944;2023-04-15T16:23:12;15.30;99.90
14709;DHT22;7445;50.774;4.944;2023-04-15T16:25:38;15.30;99.90
14709;DHT22;7445;50.774;4.944;2023-04-15T16:28:05;15.40;1.00
14709;DHT22;7445;50.774;4.944;2023-04-15T16:30:30;15.30;99.90
14709;DHT22;7445;50.774;4.944;2023-04-15T16:32:56;15.30;99.90
14709;DHT22;7445;50.774;4.944;2023-04-15T16:35:22;15.40;99.90
14709;DHT22;7445;50.774;4.944;2023-04-15T16:37:47;15.20;99.90
14709;DHT22;7445;50.774;4.944;2023-04-15T16:40:14;14.90;99.90
14709;DHT22;7445;50.774;4.944;2023-04-15T16:42:39;14.90;99.90
14709;DHT22;7445;50.774;4.944;2023-04-15T16:45:08;14.80;99.90
14709;DHT22;7445;50.774;4.944;2023-04-15T16:47:35;14.80;99.90
14709;DHT22;7445;50.774;4.944;2023-04-15T16:50:00;14.50;99.90
14709;DHT22;7445;50.774;4.944;2023-04-15T16:52:27;14.10;99.90
14709;DHT22;7445;50.774;4.944;2023-04-15T16:54:53;14.00;99.90
14709;DHT22;7445;50.774;4.944;2023-04-15T16:57:18;13.80;99.90
14709;DHT22;7445;50.774;4.944;2023-04-15T16:59:44;13.80;99.90
14709;DHT22;7445;50.774;4.944;2023-04-15T17:02:11;13.90;99.90
14709;DHT22;7445;50.774;4.944;2023-04-15T17:04:37;14.10;99.90
14709;DHT22;7445;50.774;4.944;2023-04-15T17:07:04;14.40;99.90
14709;DHT22;7445;50.774;4.944;2023-04-15T17:09:31;14.70;99.90
14709;DHT22;7445;50.774;4.944;2023-04-15T17:11:56;14.50;99.90
14709;DHT22;7445;50.774;4.944;2023-04-15T17:14:23;14.70;99.90
14709;DHT22;7445;50.774;4.944;2023-04-15T17:16:48;14.80;99.90
14709;DHT22;7445;50.774;4.944;2023-04-15T17:19:14;14.50;99.90
14709;DHT22;7445;50.774;4.944;2023-04-15T17:21:39;14.30;99.90
14709;DHT22;7445;50.774;4.944;2023-04-15T17:24:05;14.10;99.90
14709;DHT22;7445;50.774;4.944;2023-04-15T17:26:31;14.00;99.90
14709;DHT22;7445;50.774;4.944;2023-04-15T17:28:57;13.90;99.90
14709;DHT22;7445;50.774;4.944;2023-04-15T17:31:22;13.70;99.90
14709;DHT22;7445;50.774;4.944;2023-04-15T17:33:48;13.50;99.90
14709;DHT22;7445;50.774;4.944;2023-04-15T17:36:14;13.40;99.90
14709;DHT22;7445;50.774;4.944;2023-04-15T17:38:39;13.30;99.90
14709;DHT22;7445;50.774;4.944;2023-04-15T17:41:05;13.20;99.90
14709;DHT22;7445;50.774;4.944;2023-04-15T17:43:32;13.10;99.90
14709;DHT22;7445;50.774;4.944;2023-04-15T17:45:58;13.00;99.90
14709;DHT22;7445;50.774;4.944;2023-04-15T17:48:26;12.90;99.90
14709;DHT22;7445;50.774;4.944;2023-04-15T17:50:52;12.90;99.90
14709;DHT22;7445;50.774;4.944;2023-04-15T17:53:18;12.80;99.90
14709;DHT22;7445;50.774;4.944;2023-04-15T17:55:44;12.70;99.90
14709;DHT22;7445;50.774;4.944;2023-04-15T17:58:10;12.60;99.90
14709;DHT22;7445;50.774;4.944;2023-04-15T18:00:36;12.60;99.90
14709;DHT22;7445;50.774;4.944;2023-04-15T18:03:02;12.60;99.90
14709;DHT22;7445;50.774;4.944;2023-04-15T18:05:28;12.50;99.90
14709;DHT22;7445;50.774;4.944;2023-04-15T18:07:54;12.50;99.90
14709;DHT22;7445;50.774;4.944;2023-04-15T18:10:20;12.40;99.90
14709;DHT22;7445;50.774;4.944;2023-04-15T18:12:46;12.40;99.90
14709;DHT22;7445;50.774;4.944;2023-04-15T18:15:12;12.30;99.90
14709;DHT22;7445;50.774;4.944;2023-04-15T18:17:38;12.20;99.90
14709;DHT22;7445;50.774;4.944;2023-04-15T18:20:05;12.20;99.90
14709;DHT22;7445;50.774;4.944;2023-04-15T18:22:30;12.10;99.90
14709;DHT22;7445;50.774;4.944;2023-04-15T18:24:56;12.10;99.90
14709;DHT22;7445;50.774;4.944;2023-04-15T18:27:29;12.00;99.90
14709;DHT22;7445;50.774;4.944;2023-04-15T18:29:55;11.90;99.90
14709;DHT22;7445;50.774;4.944;2023-04-15T18:32:20;11.90;99.90
14709;DHT22;7445;50.774;4.944;2023-04-15T18:34:46;11.80;99.90
14709;DHT22;7445;50.774;4.944;2023-04-15T18:37:12;11.70;99.90
14709;DHT22;7445;50.774;4.944;2023-04-15T18:39:38;11.70;99.90
14709;DHT22;7445;50.774;4.944;2023-04-15T18:42:03;11.60;99.90
14709;DHT22;7445;50.774;4.944;2023-04-15T18:44:29;11.50;99.90
14709;DHT22;7445;50.774;4.944;2023-04-15T18:46:55;11.50;99.90
14709;DHT22;7445;50.774;4.944;2023-04-15T18:49:20;11.40;99.90
14709;DHT22;7445;50.774;4.944;2023-04-15T18:51:46;11.30;99.90
14709;DHT22;7445;50.774;4.944;2023-04-15T18:54:12;11.20;99.90
14709;DHT22;7445;50.774;4.944;2023-04-15T18:56:38;11.20;99.90
14709;DHT22;7445;50.774;4.944;2023-04-15T18:59:04;11.10;99.90
14709;DHT22;7445;50.774;4.944;2023-04-15T19:01:30;11.00;99.90
14709;DHT22;7445;50.774;4.944;2023-04-15T19:03:56;11.10;99.90
14709;DHT22;7445;50.774;4.944;2023-04-15T19:06:21;11.00;99.90
14709;DHT22;7445;50.774;4.944;2023-04-15T19:08:47;11.00;99.90
14709;DHT22;7445;50.774;4.944;2023-04-15T19:11:14;11.00;99.90
14709;DHT22;7445;50.774;4.944;2023-04-15T19:13:40;10.90;99.90
14709;DHT22;7445;50.774;4.944;2023-04-15T19:16:05;10.90;99.90
14709;DHT22;7445;50.774;4.944;2023-04-15T19:18:31;10.80;99.90
14709;DHT22;7445;50.774;4.944;2023-04-15T19:20:57;10.80;99.90
14709;DHT22;7445;50.774;4.944;2023-04-15T19:23:23;10.80;99.90
14709;DHT22;7445;50.774;4.944;2023-04-15T19:25:48;10.70;99.90
14709;DHT22;7445;50.774;4.944;2023-04-15T19:28:14;10.70;99.90
14709;DHT22;7445;50.774;4.944;2023-04-15T19:30:40;10.70;99.90
14709;DHT22;7445;50.774;4.944;2023-04-15T19:33:06;10.70;99.90
14709;DHT22;7445;50.774;4.944;2023-04-15T19:35:32;10.70;99.90
14709;DHT22;7445;50.774;4.944;2023-04-15T19:37:58;10.60;99.90
14709;DHT22;7445;50.774;4.944;2023-04-15T19:40:23;10.60;99.90
14709;DHT22;7445;50.774;4.944;2023-04-15T19:42:49;10.60;99.90
14709;DHT22;7445;50.774;4.944;2023-04-15T19:45:15;10.60;99.90
14709;DHT22;7445;50.774;4.944;2023-04-15T19:47:40;10.60;99.90
14709;DHT22;7445;50.774;4.944;2023-04-15T19:50:06;10.60;99.90
14709;DHT22;7445;50.774;4.944;2023-04-15T19:52:33;10.50;99.90
14709;DHT22;7445;50.774;4.944;2023-04-15T19:54:58;10.60;99.90
14709;DHT22;7445;50.774;4.944;2023-04-15T19:57:24;10.50;99.90
14709;DHT22;7445;50.774;4.944;2023-04-15T19:59:49;10.50;99.90
14709;DHT22;7445;50.774;4.944;2023-04-15T20:02:15;10.50;99.90
14709;DHT22;7445;50.774;4.944;2023-04-15T20:04:41;10.50;99.90
14709;DHT22;7445;50.774;4.944;2023-04-15T20:07:06;10.50;99.90
14709;DHT22;7445;50.774;4.944;2023-04-15T20:09:32;10.50;99.90
14709;DHT22;7445;50.774;4.944;2023-04-15T20:11:58;10.50;99.90
14709;DHT22;7445;50.774;4.944;2023-04-15T20:14:23;10.60;99.90
14709;DHT22;7445;50.774;4.944;2023-04-15T20:16:49;10.60;99.90
14709;DHT22;7445;50.774;4.944;2023-04-15T20:19:15;10.50;99.90
14709;DHT22;7445;50.774;4.944;2023-04-15T20:21:41;10.50;99.90
14709;DHT22;7445;50.774;4.944;2023-04-15T20:24:07;10.40;99.90
14709;DHT22;7445;50.774;4.944;2023-04-15T20:26:32;10.40;99.90
14709;DHT22;7445;50.774;4.944;2023-04-15T20:28:58;10.30;99.90
14709;DHT22;7445;50.774;4.944;2023-04-15T20:31:24;10.20;99.90
14709;DHT22;7445;50.774;4.944;2023-04-15T20:33:51;10.20;99.90
14709;DHT22;7445;50.774;4.944;2023-04-15T20:36:16;10.10;99.90
14709;DHT22;7445;50.774;4.944;2023-04-15T20:38:42;10.10;99.90
14709;DHT22;7445;50.774;4.944;2023-04-15T20:41:09;10.10;99.90
14709;DHT22;7445;50.774;4.944;2023-04-15T20:43:34;10.00;99.90
14709;DHT22;7445;50.774;4.944;2023-04-15T20:46:00;10.00;99.90
14709;DHT22;7445;50.774;4.944;2023-04-15T20:48:25;10.00;99.90
14709;DHT22;7445;50.774;4.944;2023-04-15T20:50:51;10.00;99.90
14709;DHT22;7445;50.774;4.944;2023-04-15T20:53:17;9.90;99.90
14709;DHT22;7445;50.774;4.944;2023-04-15T20:55:42;9.80;99.90
14709;DHT22;7445;50.774;4.944;2023-04-15T20:58:09;9.80;99.90
14709;DHT22;7445;50.774;4.944;2023-04-15T21:00:35;9.80;99.90
14709;DHT22;7445;50.774;4.944;2023-04-15T21:03:01;9.80;99.90
14709;DHT22;7445;50.774;4.944;2023-04-15T21:05:26;9.90;99.90
14709;DHT22;7445;50.774;4.944;2023-04-15T21:07:53;9.80;99.90
14709;DHT22;7445;50.774;4.944;2023-04-15T21:10:19;9.80;99.90
14709;DHT22;7445;50.774;4.944;2023-04-15T21:12:45;9.80;99.90
14709;DHT22;7445;50.774;4.944;2023-04-15T21:15:11;9.80;99.90
14709;DHT22;7445;50.774;4.944;2023-04-15T21:17:37;9.80;99.90
14709;DHT22;7445;50.774;4.944;2023-04-15T21:20:03;9.80;99.90
14709;DHT22;7445;50.774;4.944;2023-04-15T21:22:28;9.80;99.90
14709;DHT22;7445;50.774;4.944;2023-04-15T21:24:54;9.80;99.90
14709;DHT22;7445;50.774;4.944;2023-04-15T21:27:20;9.80;99.90
14709;DHT22;7445;50.774;4.944;2023-04-15T21:29:45;9.80;99.90
14709;DHT22;7445;50.774;4.944;2023-04-15T21:32:11;9.70;99.90
14709;DHT22;7445;50.774;4.944;2023-04-15T21:34:37;9.70;99.90
14709;DHT22;7445;50.774;4.944;2023-04-15T21:37:02;9.50;99.90
14709;DHT22;7445;50.774;4.944;2023-04-15T21:39:28;9.50;99.90
14709;DHT22;7445;50.774;4.944;2023-04-15T21:41:54;9.30;99.90
14709;DHT22;7445;50.774;4.944;2023-04-15T21:44:21;9.10;99.90
